Chiang Mai International Airport
VTCC : now visible

Airfield :











YOU CAN JOIN US ON...

 
LOGIN :

Register | Disclaimer

   EN    FR    IT 

 









Legend :    VFR   Marginal VFR   IFR   Intensive IFR   Very Intensive IFR
Visi :
Ceiling :
>= 8 km
>= 3000ft
5 to 8 km
1000 to 3000 ft
1500m to 5 km
500 to 1000 ft
800 to 1500m
200 to 500 ft
< 800m
< 200 ft
Symbols :   Thunderstorms  Fog  Heavy snow  Heavy precipitations  Wind > 20 kt






- Airport Elevation : 1036 ft
- IATA code : CNX


VTCC - Chiang Mai International

CURRENT METAR :
  • 131130Z 00000KT 9999 SCT035 29/22 Q1014 NOSIG

EXPIRED METARs :
  • 131100Z 34004KT 9999 SCT035 29/22 Q1014 NOSIG
  • 131030Z 32005KT 9999 SCT035 31/22 Q1014 NOSIG
  • 130930Z 35005KT 9999 SCT035 33/21 Q1013 NOSIG
  • 130900Z 36006KT 9999 SCT035 33/21 Q1013 NOSIG

TAF TAF VTCC
Valid from the 13 at 12:00 until the 14 at 18:00 UTC


131100Z 1312/1418 03005KT 9999 SCT035
TEMPO 1321/1403 VRB15G25KT 5000 TSRA FEW020CB BKN035



MET'MAP, your aeronautical weather chart ! - Copyright ORBIFLY December 2007 - Disclaimer

ORBIFLY MET'MAP TEAM :

Programming & Development : Alexandra Zaïnal
Concept & Development : Baudouin d'Aumeries
Co-Development & Prog : Marc-Olivier Méhu
Technical & hardware support : Manuel Goepfert

Contact : metmap@orbifly.com




SOURCES & CREDITS :

   NOAA       Earth
Advisory